createdAt,value
2023-04-26T00:00:45.755Z,2.03
2023-04-26T00:03:13.424Z,1.87
2023-04-26T00:05:40.602Z,1.85
2023-04-26T00:08:07.178Z,1.85
2023-04-26T00:10:33.725Z,1.88
2023-04-26T00:13:00.226Z,1.86
2023-04-26T00:15:26.740Z,1.81
2023-04-26T00:17:53.593Z,1.76
2023-04-26T00:20:20.095Z,1.84
2023-04-26T00:22:46.640Z,1.78
2023-04-26T00:25:13.910Z,1.85
2023-04-26T00:27:40.559Z,1.78
2023-04-26T00:30:07.653Z,1.80
2023-04-26T00:32:35.622Z,1.68
2023-04-26T00:35:04.381Z,1.72
2023-04-26T00:37:31.211Z,1.71
2023-04-26T00:39:57.693Z,1.72
2023-04-26T00:42:24.138Z,1.67
2023-04-26T00:44:55.129Z,1.67
2023-04-26T00:47:22.847Z,1.68
2023-04-26T00:49:49.499Z,1.63
2023-04-26T00:52:16.236Z,1.60
2023-04-26T00:54:43.100Z,1.55
2023-04-26T00:57:11.062Z,1.47
2023-04-26T00:59:37.758Z,1.49
2023-04-26T01:02:04.289Z,1.41
2023-04-26T01:04:31.012Z,1.41
2023-04-26T01:07:15.820Z,1.36
2023-04-26T01:09:44.420Z,1.41
2023-04-26T01:12:11.975Z,1.35
2023-04-26T01:14:39.885Z,1.40
2023-04-26T01:17:06.785Z,1.36
2023-04-26T01:19:33.652Z,1.33
2023-04-26T01:22:00.116Z,1.27
2023-04-26T01:24:26.604Z,1.20
2023-04-26T01:26:53.009Z,1.25
2023-04-26T01:29:21.291Z,1.20
2023-04-26T01:31:48.599Z,1.22
2023-04-26T01:34:15.945Z,1.22
2023-04-26T01:36:42.776Z,1.21
2023-04-26T01:39:09.479Z,1.19
2023-04-26T01:41:35.991Z,1.22
2023-04-26T01:44:02.649Z,1.13
2023-04-26T01:46:29.192Z,1.03
2023-04-26T01:48:55.821Z,1.09
2023-04-26T01:51:22.264Z,1.15
2023-04-26T01:53:48.755Z,1.09
2023-04-26T01:56:16.083Z,0.99
2023-04-26T01:58:42.564Z,0.95
2023-04-26T02:01:09.892Z,1.01
2023-04-26T02:03:36.574Z,1.05
2023-04-26T02:06:03.689Z,0.95
2023-04-26T02:08:30.549Z,0.97
2023-04-26T02:10:57.200Z,0.90
2023-04-26T02:13:23.751Z,0.98
2023-04-26T02:15:51.389Z,0.85
2023-04-26T02:18:21.737Z,0.79
2023-04-26T02:20:48.358Z,0.83
2023-04-26T02:23:15.834Z,0.83
2023-04-26T02:25:46.482Z,0.79
2023-04-26T02:28:13.301Z,0.79
2023-04-26T02:30:40.018Z,0.82
2023-04-26T02:33:07.313Z,0.80
2023-04-26T02:35:33.947Z,0.83
2023-04-26T02:38:00.386Z,0.79
2023-04-26T02:40:26.879Z,0.79
2023-04-26T02:42:53.357Z,0.68
2023-04-26T02:45:19.886Z,0.66
2023-04-26T02:47:46.417Z,0.65
2023-04-26T02:50:12.906Z,0.62
2023-04-26T02:52:39.497Z,0.66
2023-04-26T02:55:06.929Z,0.66
2023-04-26T02:57:33.792Z,0.62
2023-04-26T03:00:00.772Z,0.64
2023-04-26T03:02:27.480Z,0.63
2023-04-26T03:04:54.147Z,0.56
2023-04-26T03:07:20.784Z,0.51
2023-04-26T03:09:47.357Z,0.52
2023-04-26T03:12:13.929Z,0.44
2023-04-26T03:14:40.370Z,0.48
2023-04-26T03:17:06.834Z,0.47
2023-04-26T03:19:34.708Z,0.51
2023-04-26T03:22:01.370Z,0.51
2023-04-26T03:24:27.886Z,0.45
2023-04-26T03:26:54.349Z,0.43
2023-04-26T03:29:20.792Z,0.41
2023-04-26T03:31:47.418Z,0.38
2023-04-26T03:34:13.915Z,0.38
2023-04-26T03:36:40.428Z,0.46
2023-04-26T03:39:07.426Z,0.38
2023-04-26T03:41:36.943Z,0.41
2023-04-26T03:44:03.571Z,0.32
2023-04-26T03:46:30.095Z,0.35
2023-04-26T03:48:56.853Z,0.37
2023-04-26T03:51:23.321Z,0.40
2023-04-26T03:53:50.005Z,0.40
2023-04-26T03:56:17.058Z,0.36
2023-04-26T03:58:43.715Z,0.28
2023-04-26T04:01:10.256Z,0.25
2023-04-26T04:03:40.066Z,0.31
2023-04-26T04:06:08.008Z,0.36
2023-04-26T04:08:34.646Z,0.36
2023-04-26T04:11:01.539Z,0.22
2023-04-26T04:13:28.018Z,0.27
2023-04-26T04:15:54.671Z,0.18
2023-04-26T04:18:21.277Z,0.29
2023-04-26T04:20:47.723Z,0.28
2023-04-26T04:23:14.220Z,0.37
2023-04-26T04:25:41.079Z,0.41
2023-04-26T04:28:08.578Z,0.37
2023-04-26T04:30:35.836Z,0.34
2023-04-26T04:33:02.602Z,0.40
2023-04-26T04:35:33.651Z,0.51
2023-04-26T04:38:01.726Z,0.58
2023-04-26T04:40:28.242Z,0.69
2023-04-26T04:42:55.502Z,0.64
2023-04-26T04:45:22.258Z,0.82
2023-04-26T04:47:49.004Z,0.84
2023-04-26T04:50:16.061Z,0.93
2023-04-26T04:52:42.730Z,1.05
2023-04-26T04:55:09.907Z,0.98
2023-04-26T04:57:36.491Z,1.14
2023-04-26T05:00:10.532Z,1.19
2023-04-26T05:02:37.728Z,1.38
2023-04-26T05:05:05.471Z,1.45
2023-04-26T05:07:32.630Z,1.45
2023-04-26T05:09:59.784Z,1.57
2023-04-26T05:12:26.646Z,1.58
2023-04-26T05:14:53.278Z,1.53
2023-04-26T05:17:20.164Z,1.56
2023-04-26T05:19:47.429Z,1.75
2023-04-26T05:22:19.485Z,1.78
2023-04-26T05:24:47.580Z,1.83
2023-04-26T05:27:14.651Z,1.78
2023-04-26T05:29:41.771Z,1.91
2023-04-26T05:32:08.479Z,2.20
2023-04-26T05:34:35.370Z,2.15
2023-04-26T05:37:02.075Z,2.06
2023-04-26T05:39:28.789Z,2.06
2023-04-26T05:41:55.444Z,2.15
2023-04-26T05:44:21.900Z,2.22
2023-04-26T05:46:48.590Z,2.29
2023-04-26T05:49:15.259Z,2.20
2023-04-26T05:51:41.773Z,2.46
2023-04-26T05:54:08.253Z,2.57
2023-04-26T05:56:34.762Z,2.63
2023-04-26T05:59:01.234Z,2.69
2023-04-26T06:01:27.889Z,2.50
2023-04-26T06:03:58.043Z,2.68
2023-04-26T06:06:28.313Z,2.99
2023-04-26T06:08:55.730Z,2.94
2023-04-26T06:11:22.500Z,3.24
2023-04-26T06:13:49.105Z,3.11
2023-04-26T06:16:16.362Z,3.31
2023-04-26T06:18:43.511Z,3.30
2023-04-26T06:21:10.022Z,3.44
2023-04-26T06:23:36.450Z,3.43
2023-04-26T06:26:02.881Z,3.37
2023-04-26T06:28:29.458Z,3.54
2023-04-26T06:30:56.016Z,3.75
2023-04-26T06:33:22.545Z,3.92
2023-04-26T06:35:49.035Z,4.34
2023-04-26T06:38:15.599Z,4.34
2023-04-26T06:40:42.926Z,4.61
2023-04-26T06:43:09.385Z,4.74
2023-04-26T06:45:36.146Z,5.06
2023-04-26T06:48:04.754Z,5.12
2023-04-26T06:50:31.464Z,5.45
2023-04-26T06:52:58.115Z,5.46
2023-04-26T06:55:24.975Z,5.56
2023-04-26T06:57:51.457Z,5.73
2023-04-26T07:00:18.342Z,5.76
2023-04-26T07:02:45.428Z,5.40
2023-04-26T07:05:12.235Z,5.97
2023-04-26T07:07:38.778Z,5.54
2023-04-26T07:10:05.940Z,5.81
2023-04-26T07:12:32.572Z,5.60
2023-04-26T07:14:59.028Z,5.56
2023-04-26T07:17:25.477Z,6.26
2023-04-26T07:19:52.474Z,6.53
2023-04-26T07:22:20.128Z,7.35
2023-04-26T07:24:46.599Z,7.02
2023-04-26T07:27:13.110Z,7.01
2023-04-26T07:29:40.269Z,7.17
2023-04-26T07:32:06.852Z,7.48
2023-04-26T07:34:33.366Z,7.62
2023-04-26T07:36:59.806Z,7.68
2023-04-26T07:39:26.300Z,7.38
2023-04-26T07:41:52.712Z,7.95
2023-04-26T07:44:19.261Z,7.70
2023-04-26T07:46:46.034Z,7.72
2023-04-26T07:49:13.293Z,6.82
2023-04-26T07:51:41.126Z,6.98
2023-04-26T07:54:07.792Z,7.58
2023-04-26T07:56:34.279Z,6.88
2023-04-26T07:59:00.719Z,7.54
2023-04-26T08:01:28.036Z,7.49
2023-04-26T08:03:55.749Z,6.96
2023-04-26T08:06:22.747Z,6.99
2023-04-26T08:08:50.868Z,7.27
2023-04-26T08:11:17.506Z,6.69
2023-04-26T08:13:44.202Z,6.18
2023-04-26T08:16:10.915Z,5.81
2023-04-26T08:18:37.547Z,5.49
2023-04-26T08:21:04.149Z,5.16
2023-04-26T08:23:36.621Z,4.98
2023-04-26T08:26:03.445Z,4.56
2023-04-26T08:28:29.971Z,4.50
2023-04-26T08:30:56.721Z,4.73
2023-04-26T08:33:23.344Z,5.20
2023-04-26T08:35:49.888Z,5.20
2023-04-26T08:38:16.400Z,5.11
2023-04-26T08:40:46.821Z,5.19
2023-04-26T08:43:15.232Z,5.35
2023-04-26T08:45:45.857Z,6.08
2023-04-26T08:48:16.085Z,7.28
2023-04-26T08:50:45.342Z,7.84
2023-04-26T08:53:15.937Z,8.62
2023-04-26T08:55:47.113Z,8.59
2023-04-26T08:58:14.361Z,9.02
2023-04-26T09:00:43.998Z,8.10
2023-04-26T09:03:10.842Z,8.35
2023-04-26T09:05:40.020Z,8.16
2023-04-26T09:08:07.298Z,7.98
2023-04-26T09:10:33.818Z,7.37
2023-04-26T09:13:00.614Z,7.12
2023-04-26T09:15:27.752Z,7.21
2023-04-26T09:17:54.636Z,7.22
2023-04-26T09:20:29.237Z,7.10
2023-04-26T09:23:07.396Z,6.83
2023-04-26T09:25:34.970Z,6.86
2023-04-26T09:28:02.574Z,6.86
2023-04-26T09:30:29.398Z,6.42
2023-04-26T09:32:58.785Z,6.35
2023-04-26T09:35:25.586Z,6.15
2023-04-26T09:38:00.329Z,5.71
2023-04-26T09:40:31.431Z,5.97
2023-04-26T09:42:59.880Z,6.12
2023-04-26T09:45:27.382Z,6.62
2023-04-26T09:47:53.964Z,8.06
2023-04-26T09:50:31.477Z,9.47
2023-04-26T09:52:58.144Z,9.11
2023-04-26T09:55:35.278Z,8.89
2023-04-26T09:58:10.521Z,8.29
2023-04-26T10:00:38.713Z,7.62
2023-04-26T10:03:08.338Z,6.70
2023-04-26T10:05:36.000Z,6.70
2023-04-26T10:08:03.904Z,6.76
2023-04-26T10:10:31.789Z,6.76
2023-04-26T10:12:58.318Z,6.87
2023-04-26T10:15:24.855Z,8.30
2023-04-26T10:17:52.197Z,8.99
2023-04-26T10:20:21.516Z,9.36
2023-04-26T10:23:01.540Z,8.12
2023-04-26T10:25:38.827Z,7.51
2023-04-26T10:28:05.746Z,7.30
2023-04-26T10:30:32.819Z,7.36
2023-04-26T10:32:59.335Z,6.75
2023-04-26T10:35:33.349Z,6.81
2023-04-26T10:37:59.750Z,6.67
2023-04-26T10:40:40.315Z,6.63
2023-04-26T10:43:13.747Z,6.38
2023-04-26T10:45:50.541Z,6.59
2023-04-26T10:48:22.550Z,6.88
2023-04-26T10:51:13.278Z,6.74
2023-04-26T10:53:48.648Z,6.53
2023-04-26T10:56:24.018Z,6.51
2023-04-26T10:59:22.542Z,6.54
2023-04-26T11:01:54.291Z,6.52
2023-04-26T11:04:21.318Z,6.53
2023-04-26T11:06:55.776Z,6.56
2023-04-26T11:09:36.971Z,6.33
2023-04-26T11:12:14.265Z,6.58
2023-04-26T11:14:46.100Z,6.38
2023-04-26T11:17:13.121Z,6.52
2023-04-26T11:19:41.790Z,6.76
2023-04-26T11:22:08.766Z,6.97
2023-04-26T11:24:41.656Z,7.13
2023-04-26T11:27:09.712Z,7.77
2023-04-26T11:29:36.432Z,8.06
2023-04-26T11:32:03.657Z,8.17
2023-04-26T11:34:34.341Z,8.18
2023-04-26T11:37:05.698Z,7.58
2023-04-26T11:39:36.110Z,7.26
2023-04-26T11:42:10.977Z,7.02
2023-04-26T11:44:38.608Z,6.79
2023-04-26T11:47:07.123Z,6.32
2023-04-26T11:49:36.099Z,6.05
2023-04-26T11:52:04.899Z,6.02
2023-04-26T11:54:33.420Z,6.20
2023-04-26T11:57:00.439Z,6.27
2023-04-26T11:59:29.271Z,6.43
2023-04-26T12:01:58.005Z,6.67
2023-04-26T12:04:31.444Z,7.06
2023-04-26T12:06:58.525Z,7.32
2023-04-26T12:09:27.965Z,7.65
2023-04-26T12:12:02.321Z,7.87
2023-04-26T12:14:37.486Z,7.66
2023-04-26T12:17:06.196Z,7.99
2023-04-26T12:19:40.530Z,7.71
2023-04-26T12:22:08.727Z,7.14
2023-04-26T12:24:38.581Z,7.00
2023-04-26T12:27:09.134Z,6.48
2023-04-26T12:29:35.999Z,6.35
2023-04-26T12:32:04.072Z,6.32
2023-04-26T12:34:31.372Z,6.28
2023-04-26T12:36:57.853Z,6.39
2023-04-26T12:39:24.354Z,6.40
2023-04-26T12:41:51.054Z,6.80
2023-04-26T12:44:19.646Z,7.09
2023-04-26T12:46:47.989Z,7.51
2023-04-26T12:49:14.760Z,7.81
2023-04-26T12:51:41.215Z,8.20
2023-04-26T12:54:07.968Z,8.07
2023-04-26T12:56:35.291Z,8.07
2023-04-26T12:59:01.895Z,7.98
2023-04-26T13:01:28.463Z,8.00
2023-04-26T13:03:56.661Z,7.84
2023-04-26T13:06:23.839Z,7.88
2023-04-26T13:08:50.942Z,7.81
2023-04-26T13:11:18.045Z,7.58
2023-04-26T13:13:45.033Z,7.56
2023-04-26T13:16:12.927Z,7.49
2023-04-26T13:18:40.389Z,7.69
2023-04-26T13:21:07.187Z,7.71
2023-04-26T13:23:33.621Z,7.64
2023-04-26T13:26:00.284Z,7.85
2023-04-26T13:28:26.798Z,7.92
2023-04-26T13:30:53.399Z,7.92
2023-04-26T13:33:21.465Z,7.93
2023-04-26T13:35:48.557Z,7.80
2023-04-26T13:38:16.251Z,7.65
2023-04-26T13:40:43.533Z,7.37
2023-04-26T13:43:09.963Z,7.49
2023-04-26T13:45:36.891Z,7.06
2023-04-26T13:48:03.572Z,6.83
2023-04-26T13:50:30.168Z,6.84
2023-04-26T13:52:56.895Z,7.03
2023-04-26T13:55:23.547Z,7.33
2023-04-26T13:57:49.980Z,7.55
2023-04-26T14:00:16.958Z,7.46
2023-04-26T14:02:43.672Z,7.37
2023-04-26T14:05:10.478Z,7.13
2023-04-26T14:07:37.204Z,7.19
2023-04-26T14:10:04.244Z,7.09
2023-04-26T14:12:31.028Z,6.99
2023-04-26T14:14:57.553Z,7.10
2023-04-26T14:17:24.936Z,7.32
2023-04-26T14:19:54.119Z,7.57
2023-04-26T14:22:21.480Z,7.74
2023-04-26T14:24:48.086Z,7.66
2023-04-26T14:27:14.836Z,7.49
2023-04-26T14:29:41.574Z,7.49
2023-04-26T14:32:08.203Z,7.01
2023-04-26T14:34:39.142Z,6.94
2023-04-26T14:37:06.843Z,6.92
2023-04-26T14:39:33.613Z,6.99
2023-04-26T14:42:00.266Z,7.19
2023-04-26T14:44:27.092Z,7.13
2023-04-26T14:46:53.603Z,6.95
2023-04-26T14:49:20.337Z,6.82
2023-04-26T14:51:46.830Z,6.76
2023-04-26T14:54:13.365Z,6.94
2023-04-26T14:56:39.814Z,6.99
2023-04-26T14:59:06.326Z,7.05
2023-04-26T15:01:32.853Z,6.97
2023-04-26T15:04:00.851Z,7.16
2023-04-26T15:06:28.680Z,7.07
2023-04-26T15:08:55.221Z,7.07
2023-04-26T15:11:21.793Z,6.83
2023-04-26T15:13:48.434Z,6.85
2023-04-26T15:16:14.929Z,6.80
2023-04-26T15:18:41.420Z,7.08
2023-04-26T15:21:09.146Z,7.09
2023-04-26T15:23:36.051Z,6.84
2023-04-26T15:26:03.305Z,6.92
2023-04-26T15:28:29.842Z,6.83
2023-04-26T15:31:03.819Z,6.86
2023-04-26T15:33:30.630Z,6.73
2023-04-26T15:35:57.386Z,6.69
2023-04-26T15:38:24.747Z,6.56
2023-04-26T15:40:51.481Z,6.53
2023-04-26T15:43:18.135Z,6.56
2023-04-26T15:45:44.922Z,6.75
2023-04-26T15:48:12.084Z,6.89
2023-04-26T15:50:38.635Z,6.88
2023-04-26T15:53:05.301Z,6.85
2023-04-26T15:55:42.889Z,7.09
2023-04-26T15:58:09.363Z,7.04
2023-04-26T16:00:36.432Z,6.94
2023-04-26T16:03:03.038Z,6.86
2023-04-26T16:05:31.497Z,6.68
2023-04-26T16:07:58.147Z,6.68
2023-04-26T16:10:24.571Z,6.70
2023-04-26T16:12:51.526Z,6.60
2023-04-26T16:15:18.078Z,6.54
2023-04-26T16:17:44.810Z,6.59
2023-04-26T16:20:11.631Z,6.56
2023-04-26T16:22:38.231Z,6.55
2023-04-26T16:25:06.977Z,6.57
2023-04-26T16:27:33.794Z,6.52
2023-04-26T16:30:00.418Z,6.42
2023-04-26T16:32:27.015Z,6.45
2023-04-26T16:34:53.573Z,6.58
2023-04-26T16:37:20.289Z,6.49
2023-04-26T16:39:46.966Z,6.32
2023-04-26T16:42:13.411Z,6.45
2023-04-26T16:44:40.749Z,6.66
2023-04-26T16:47:07.249Z,6.67
2023-04-26T16:49:34.236Z,6.71
2023-04-26T16:52:01.117Z,6.76
2023-04-26T16:54:27.873Z,6.60
2023-04-26T16:56:54.573Z,6.68
2023-04-26T16:59:21.087Z,6.37
2023-04-26T17:01:47.761Z,6.35
2023-04-26T17:04:14.901Z,6.35
2023-04-26T17:06:45.078Z,6.27
2023-04-26T17:09:12.666Z,6.45
2023-04-26T17:11:43.412Z,6.52
2023-04-26T17:14:10.108Z,6.53
2023-04-26T17:16:36.989Z,6.47
2023-04-26T17:19:04.125Z,6.47
2023-04-26T17:21:30.870Z,6.23
2023-04-26T17:23:57.334Z,6.22
2023-04-26T17:26:24.124Z,6.15
2023-04-26T17:28:51.284Z,6.17
2023-04-26T17:31:17.851Z,6.12
2023-04-26T17:33:44.461Z,6.18
2023-04-26T17:36:11.047Z,6.06
2023-04-26T17:38:37.460Z,6.08
2023-04-26T17:41:03.905Z,6.05
2023-04-26T17:43:30.472Z,5.93
2023-04-26T17:45:57.015Z,5.88
2023-04-26T17:48:23.679Z,5.82
2023-04-26T17:50:51.178Z,5.77
2023-04-26T17:53:17.870Z,5.70
2023-04-26T17:55:44.979Z,5.69
2023-04-26T17:58:11.544Z,5.66
2023-04-26T18:00:37.988Z,5.63
2023-04-26T18:03:05.144Z,5.63
2023-04-26T18:05:31.838Z,5.59
2023-04-26T18:07:58.707Z,5.59
2023-04-26T18:10:25.403Z,5.50
2023-04-26T18:12:51.853Z,5.38
2023-04-26T18:15:18.834Z,5.42
2023-04-26T18:17:45.586Z,5.46
2023-04-26T18:20:13.280Z,5.41
2023-04-26T18:22:40.440Z,5.41
2023-04-26T18:25:07.332Z,5.36
2023-04-26T18:27:33.903Z,5.34
2023-04-26T18:30:01.029Z,5.17
2023-04-26T18:32:27.633Z,5.19
2023-04-26T18:34:54.159Z,5.13
2023-04-26T18:37:20.578Z,5.10
2023-04-26T18:39:47.136Z,5.10
2023-04-26T18:42:13.633Z,5.13
2023-04-26T18:44:40.380Z,5.12
2023-04-26T18:47:06.883Z,5.08
2023-04-26T18:49:33.423Z,5.07
2023-04-26T18:52:00.675Z,5.02
2023-04-26T18:54:27.169Z,5.02
2023-04-26T18:56:54.139Z,5.00
2023-04-26T18:59:20.851Z,5.04
2023-04-26T19:01:49.090Z,4.98
2023-04-26T19:04:15.897Z,5.02
2023-04-26T19:06:42.498Z,5.04
2023-04-26T19:09:11.699Z,5.02
2023-04-26T19:11:38.381Z,4.99
2023-04-26T19:14:05.122Z,4.97
2023-04-26T19:16:32.221Z,5.02
2023-04-26T19:18:58.815Z,4.91
2023-04-26T19:21:25.286Z,4.80
2023-04-26T19:23:51.723Z,4.86
2023-04-26T19:26:18.126Z,4.83
2023-04-26T19:28:44.622Z,4.78
2023-04-26T19:31:11.139Z,4.73
2023-04-26T19:33:38.217Z,4.71
2023-04-26T19:36:05.093Z,4.73
2023-04-26T19:38:31.817Z,4.72
2023-04-26T19:40:58.296Z,4.62
2023-04-26T19:43:24.731Z,4.61
2023-04-26T19:45:51.316Z,4.60
2023-04-26T19:48:17.864Z,4.69
2023-04-26T19:50:45.880Z,4.65
2023-04-26T19:53:14.648Z,4.63
2023-04-26T19:55:42.383Z,4.66
2023-04-26T19:58:10.785Z,4.66
2023-04-26T20:00:39.860Z,4.65
2023-04-26T20:03:06.880Z,4.66
2023-04-26T20:05:33.829Z,4.63
2023-04-26T20:08:01.354Z,4.70
2023-04-26T20:10:33.884Z,4.66
2023-04-26T20:13:01.401Z,4.68
2023-04-26T20:15:28.142Z,4.67
2023-04-26T20:17:55.031Z,4.65
2023-04-26T20:20:21.777Z,4.67
2023-04-26T20:22:48.228Z,4.63
2023-04-26T20:25:14.829Z,4.60
2023-04-26T20:27:41.458Z,4.54
2023-04-26T20:30:08.580Z,4.55
2023-04-26T20:32:35.435Z,4.55
2023-04-26T20:35:02.110Z,4.57
2023-04-26T20:37:28.699Z,4.49
2023-04-26T20:39:55.219Z,4.55
2023-04-26T20:42:22.100Z,4.59
2023-04-26T20:44:48.932Z,4.61
2023-04-26T20:47:15.682Z,4.59
2023-04-26T20:49:42.416Z,4.62
2023-04-26T20:52:09.202Z,4.60
2023-04-26T20:54:35.717Z,4.59
2023-04-26T20:57:04.033Z,4.57
2023-04-26T20:59:30.806Z,4.51
2023-04-26T21:01:57.362Z,4.49
2023-04-26T21:04:24.213Z,4.50
2023-04-26T21:06:51.213Z,4.42
2023-04-26T21:09:17.716Z,4.45
2023-04-26T21:11:44.205Z,4.42
2023-04-26T21:14:10.931Z,4.37
2023-04-26T21:16:37.435Z,4.28
2023-04-26T21:19:05.002Z,4.34
2023-04-26T21:21:32.642Z,4.30
2023-04-26T21:23:59.338Z,4.37
2023-04-26T21:26:25.917Z,4.33
2023-04-26T21:28:52.423Z,4.29
2023-04-26T21:31:19.132Z,4.27
2023-04-26T21:33:45.690Z,4.19
2023-04-26T21:36:12.264Z,4.24
2023-04-26T21:38:38.705Z,4.20
2023-04-26T21:41:05.178Z,4.18
2023-04-26T21:43:31.817Z,4.19
2023-04-26T21:45:58.637Z,4.23
2023-04-26T21:48:26.283Z,4.25
2023-04-26T21:50:53.646Z,4.21
2023-04-26T21:53:20.446Z,4.19
2023-04-26T21:55:52.564Z,4.16
2023-04-26T21:58:20.135Z,4.19
2023-04-26T22:00:46.788Z,4.21
2023-04-26T22:03:14.311Z,4.19
2023-04-26T22:05:41.130Z,4.14
2023-04-26T22:08:07.614Z,4.06
2023-04-26T22:10:34.620Z,4.09
2023-04-26T22:13:01.186Z,4.14
2023-04-26T22:15:27.763Z,4.08
2023-04-26T22:17:54.242Z,4.20
2023-04-26T22:20:21.524Z,4.13
2023-04-26T22:22:48.048Z,4.13
2023-04-26T22:25:14.525Z,4.10
2023-04-26T22:27:41.128Z,4.16
2023-04-26T22:30:23.109Z,4.10
2023-04-26T22:32:57.997Z,4.08
2023-04-26T22:35:25.438Z,4.11
2023-04-26T22:37:51.944Z,4.02
2023-04-26T22:40:18.452Z,4.10
2023-04-26T22:42:45.093Z,4.07
2023-04-26T22:45:12.577Z,4.14
2023-04-26T22:47:40.186Z,4.11
2023-04-26T22:50:08.041Z,4.15
2023-04-26T22:52:35.240Z,4.14
2023-04-26T22:55:01.723Z,4.10
2023-04-26T22:57:28.924Z,4.10
2023-04-26T22:59:55.384Z,4.13
2023-04-26T23:02:22.043Z,4.01
2023-04-26T23:04:48.580Z,3.97
2023-04-26T23:07:15.180Z,4.01
2023-04-26T23:09:41.747Z,3.99
2023-04-26T23:12:08.467Z,4.03
2023-04-26T23:14:35.112Z,3.97
2023-04-26T23:17:02.887Z,4.03
2023-04-26T23:19:29.866Z,4.04
2023-04-26T23:21:56.407Z,3.95
2023-04-26T23:24:22.877Z,3.93
2023-04-26T23:26:49.448Z,3.96
2023-04-26T23:29:15.887Z,3.92
2023-04-26T23:31:42.563Z,3.84
2023-04-26T23:34:09.283Z,3.98
2023-04-26T23:36:35.757Z,3.95
2023-04-26T23:39:02.391Z,3.90
2023-04-26T23:41:28.901Z,3.95
2023-04-26T23:43:55.364Z,3.90
2023-04-26T23:46:21.857Z,3.90
2023-04-26T23:48:48.309Z,3.92
2023-04-26T23:51:14.797Z,3.91
2023-04-26T23:53:41.229Z,3.89
2023-04-26T23:56:07.881Z,3.83
2023-04-26T23:58:34.346Z,3.90
